< < Back
Terminal Aerodrome Forecast


Current Version              Previous Versions:   1  2  3  4  5  6  7  8  9  

Terminal Aerodrome Forecast

385
FTUS44 KBMX 201100
TAFBHM
TAF
KBHM 201136Z 2012/2112 36005KT 5SM BR SCT005 OVC025
      TEMPO 2012/2014 2SM BR BKN005
     FM201500 36005KT P6SM SCT040
     FM201900 36004KT P6SM BKN060
     FM211000 03002KT 5SM BR SCT008 BKN040=



Latest METAR

674
SAUS70 KWBC 210500 RRD
MTRBHM
METAR KBHM 210453Z 00000KT 8SM CLR 02/01 A3022 RMK AO2 SLP234
T00220011


USA.gov is the U.S. government's official web portal to all federal, state and local government web resources and services.